createdAt,value
2018-11-04T00:00:17.364Z,19.17
2018-11-04T00:02:47.498Z,18.83
2018-11-04T00:05:17.335Z,20.10
2018-11-04T00:07:48.026Z,20.80
2018-11-04T00:10:17.519Z,20.20
2018-11-04T00:12:47.013Z,20.33
2018-11-04T00:15:23.079Z,22.10
2018-11-04T00:17:52.459Z,20.67
2018-11-04T00:20:21.867Z,21.40
2018-11-04T00:22:51.263Z,20.57
2018-11-04T00:25:20.720Z,21.00
2018-11-04T00:27:50.138Z,20.70
2018-11-04T00:30:19.647Z,21.67
2018-11-04T00:32:49.036Z,23.30
2018-11-04T00:35:18.444Z,20.00
2018-11-04T00:37:47.883Z,22.10
2018-11-04T00:40:17.279Z,21.73
2018-11-04T00:42:46.680Z,22.83
2018-11-04T00:45:16.113Z,22.77
2018-11-04T00:47:45.476Z,21.53
2018-11-04T00:50:16.091Z,21.97
2018-11-04T00:52:45.706Z,21.50
2018-11-04T00:55:15.208Z,22.73
2018-11-04T00:57:44.600Z,22.40
2018-11-04T01:00:16.731Z,22.80
2018-11-04T01:02:47.309Z,23.30
2018-11-04T01:05:17.139Z,20.03
2018-11-04T01:07:46.552Z,22.77
2018-11-04T01:10:16.012Z,21.70
2018-11-04T01:12:46.028Z,22.47
2018-11-04T01:15:15.950Z,22.67
2018-11-04T01:17:45.778Z,23.10
2018-11-04T01:20:16.465Z,23.90
2018-11-04T01:22:46.421Z,24.30
2018-11-04T01:25:15.827Z,21.30
2018-11-04T01:27:45.236Z,23.07
2018-11-04T01:30:15.523Z,22.00
2018-11-04T01:32:45.267Z,22.23
2018-11-04T01:35:15.032Z,22.77
2018-11-04T01:37:44.453Z,22.30
2018-11-04T01:40:13.800Z,24.83
2018-11-04T01:42:43.496Z,23.07
2018-11-04T01:45:12.895Z,22.80
2018-11-04T01:47:42.363Z,21.17
2018-11-04T01:50:14.075Z,22.93
2018-11-04T01:52:43.502Z,23.70
2018-11-04T01:55:13.287Z,23.03
2018-11-04T01:57:42.719Z,22.50
2018-11-04T02:00:15.275Z,22.77
2018-11-04T02:02:45.570Z,23.60
2018-11-04T02:05:15.579Z,22.03
2018-11-04T02:07:44.981Z,21.67
2018-11-04T02:10:15.303Z,23.87
2018-11-04T02:12:44.672Z,23.10
2018-11-04T02:15:14.159Z,22.13
2018-11-04T02:17:43.619Z,22.47
2018-11-04T02:20:13.724Z,23.00
2018-11-04T02:22:43.462Z,21.70
2018-11-04T02:25:13.993Z,23.37
2018-11-04T02:27:43.950Z,22.53
2018-11-04T02:30:15.521Z,22.50
2018-11-04T02:32:45.816Z,22.37
2018-11-04T02:35:15.837Z,23.90
2018-11-04T02:37:45.237Z,24.03
2018-11-04T02:40:14.656Z,23.17
2018-11-04T02:42:44.064Z,22.00
2018-11-04T02:45:13.458Z,24.10
2018-11-04T02:47:42.888Z,24.93
2018-11-04T02:50:12.320Z,23.83
2018-11-04T02:52:41.728Z,23.43
2018-11-04T02:55:11.199Z,25.50
2018-11-04T02:57:40.580Z,23.27
2018-11-04T03:00:13.078Z,23.83
2018-11-04T03:02:43.125Z,25.23
2018-11-04T03:05:12.657Z,23.07
2018-11-04T03:07:42.808Z,24.27
2018-11-04T03:10:13.688Z,23.83
2018-11-04T03:12:43.122Z,24.43
2018-11-04T03:15:12.600Z,24.17
2018-11-04T03:17:42.056Z,24.90
2018-11-04T03:20:11.491Z,24.33
2018-11-04T03:22:40.921Z,24.80
2018-11-04T03:25:10.354Z,23.50
2018-11-04T03:27:39.924Z,24.70
2018-11-04T03:30:10.150Z,25.90
2018-11-04T03:32:39.655Z,26.23
2018-11-04T03:35:09.116Z,25.80
2018-11-04T03:37:38.523Z,23.47
2018-11-04T03:40:10.201Z,25.40
2018-11-04T03:42:39.589Z,25.50
2018-11-04T03:45:09.661Z,25.27
2018-11-04T03:47:39.400Z,25.30
2018-11-04T03:50:10.736Z,25.63
2018-11-04T03:52:40.221Z,24.87
2018-11-04T03:55:09.704Z,25.73
2018-11-04T03:57:39.154Z,25.30
2018-11-04T04:00:12.536Z,25.67
2018-11-04T04:02:43.136Z,25.60
2018-11-04T04:05:12.581Z,24.80
2018-11-04T04:07:41.993Z,26.87
2018-11-04T04:10:11.419Z,28.50
2018-11-04T04:12:40.821Z,26.03
2018-11-04T04:15:11.376Z,25.53
2018-11-04T04:17:41.024Z,26.07
2018-11-04T04:20:10.409Z,26.77
2018-11-04T04:22:39.871Z,27.93
2018-11-04T04:25:09.398Z,28.03
2018-11-04T04:27:38.861Z,26.63
2018-11-04T04:30:10.677Z,27.53
2018-11-04T04:32:40.060Z,27.60
2018-11-04T04:35:10.186Z,28.20
2018-11-04T04:37:40.097Z,27.67
2018-11-04T04:40:09.753Z,26.17
2018-11-04T04:42:39.169Z,27.53
2018-11-04T04:45:08.598Z,27.43
2018-11-04T04:47:37.972Z,28.43
2018-11-04T04:50:07.423Z,28.10
2018-11-04T04:52:36.920Z,29.90
2018-11-04T04:55:06.500Z,28.13
2018-11-04T04:57:36.076Z,29.17
2018-11-04T05:00:06.744Z,28.67
2018-11-04T05:02:36.219Z,28.40
2018-11-04T05:05:05.943Z,29.03
2018-11-04T05:07:35.695Z,29.40
2018-11-04T05:10:05.668Z,28.87
2018-11-04T05:12:35.061Z,29.97
2018-11-04T05:15:04.925Z,29.87
2018-11-04T05:17:34.306Z,28.63
2018-11-04T05:20:03.708Z,29.60
2018-11-04T05:22:33.108Z,28.77
2018-11-04T05:25:02.521Z,29.67
2018-11-04T05:27:31.919Z,29.40
2018-11-04T05:30:01.554Z,30.87
2018-11-04T05:32:30.976Z,28.60
2018-11-04T05:35:00.360Z,29.57
2018-11-04T05:37:29.964Z,29.50
2018-11-04T05:39:59.429Z,29.80
2018-11-04T05:42:28.869Z,32.10
2018-11-04T05:44:58.264Z,30.53
2018-11-04T05:47:27.641Z,29.90
2018-11-04T05:49:57.028Z,29.93
2018-11-04T05:52:26.452Z,31.37
2018-11-04T05:54:55.864Z,30.97
2018-11-04T05:57:25.373Z,30.83
2018-11-04T05:59:54.820Z,32.60
2018-11-04T06:02:24.305Z,31.00
2018-11-04T06:04:53.702Z,33.20
2018-11-04T06:07:23.280Z,32.80
2018-11-04T06:09:52.680Z,33.13
2018-11-04T06:12:22.164Z,32.70
2018-11-04T06:14:51.564Z,34.00
2018-11-04T06:17:20.968Z,33.47
2018-11-04T06:19:50.384Z,33.10
2018-11-04T06:22:19.835Z,32.63
2018-11-04T06:24:49.456Z,36.60
2018-11-04T06:27:18.919Z,33.40
2018-11-04T06:29:48.449Z,34.23
2018-11-04T06:32:17.903Z,33.07
2018-11-04T06:34:47.399Z,33.00
2018-11-04T06:37:16.689Z,32.33
2018-11-04T06:39:52.837Z,34.20
2018-11-04T06:42:22.424Z,34.60
2018-11-04T06:44:51.827Z,30.53
2018-11-04T06:47:21.296Z,31.70
2018-11-04T06:49:50.716Z,33.27
2018-11-04T06:52:20.137Z,32.70
2018-11-04T06:54:49.552Z,34.30
2018-11-04T06:57:19.150Z,33.67
2018-11-04T06:59:48.576Z,34.37
2018-11-04T07:02:17.972Z,35.27
2018-11-04T07:04:47.403Z,35.30
2018-11-04T07:07:16.874Z,33.87
2018-11-04T07:09:46.253Z,34.50
2018-11-04T07:12:15.673Z,35.90
2018-11-04T07:14:45.133Z,34.53
2018-11-04T07:17:14.565Z,33.50
2018-11-04T07:19:44.032Z,37.30
2018-11-04T07:22:13.432Z,38.70
2018-11-04T07:24:42.830Z,35.60
2018-11-04T07:27:12.263Z,34.10
2018-11-04T07:29:41.696Z,35.20
2018-11-04T07:32:11.327Z,34.10
2018-11-04T07:34:40.816Z,34.97
2018-11-04T07:37:10.209Z,34.27
2018-11-04T07:39:39.613Z,36.87
2018-11-04T07:42:09.032Z,34.80
2018-11-04T07:44:38.426Z,36.63
2018-11-04T07:47:07.833Z,35.50
2018-11-04T07:49:37.439Z,37.57
2018-11-04T07:52:06.912Z,35.70
2018-11-04T07:54:36.394Z,37.63
2018-11-04T07:57:06.035Z,34.33
2018-11-04T07:59:35.350Z,38.07
2018-11-04T08:02:04.783Z,36.53
2018-11-04T08:04:34.257Z,34.37
2018-11-04T08:07:03.658Z,38.07
2018-11-04T08:09:33.061Z,37.90
2018-11-04T08:12:02.469Z,42.27
2018-11-04T08:14:31.950Z,38.30
2018-11-04T08:17:01.424Z,36.83
2018-11-04T08:19:30.852Z,39.10
2018-11-04T08:22:00.289Z,37.93
2018-11-04T08:24:29.706Z,39.57
2018-11-04T08:26:59.399Z,42.30
2018-11-04T08:29:28.825Z,41.90
2018-11-04T08:31:58.208Z,40.90
2018-11-04T08:34:27.697Z,39.97
2018-11-04T08:36:57.118Z,43.17
2018-11-04T08:39:26.559Z,45.90
2018-11-04T08:41:56.029Z,42.40
2018-11-04T08:44:26.041Z,49.87
2018-11-04T08:46:55.761Z,46.20
2018-11-04T08:49:25.671Z,43.97
2018-11-04T08:51:56.098Z,48.63
2018-11-04T08:54:25.984Z,43.87
2018-11-04T08:56:55.862Z,40.67
2018-11-04T08:59:25.713Z,41.10
2018-11-04T09:01:56.016Z,41.20
2018-11-04T09:04:25.537Z,44.63
2018-11-04T09:06:54.963Z,42.83
2018-11-04T09:09:24.412Z,45.93
2018-11-04T09:11:53.822Z,43.90
2018-11-04T09:14:23.241Z,42.87
2018-11-04T09:16:52.658Z,43.80
2018-11-04T09:19:22.185Z,41.40
2018-11-04T09:21:51.778Z,41.90
2018-11-04T09:24:21.056Z,39.80
2018-11-04T09:26:50.549Z,41.03
2018-11-04T09:29:19.988Z,41.90
2018-11-04T09:31:49.401Z,42.20
2018-11-04T09:34:18.905Z,46.50
2018-11-04T09:36:48.360Z,48.00
2018-11-04T09:39:17.917Z,44.73
2018-11-04T09:41:47.325Z,43.30
2018-11-04T09:44:16.720Z,44.90
2018-11-04T09:46:46.172Z,44.30
2018-11-04T09:49:15.582Z,45.73
2018-11-04T09:51:45.032Z,40.27
2018-11-04T09:54:14.791Z,44.73
2018-11-04T09:56:44.267Z,43.17
2018-11-04T09:59:13.632Z,42.70
2018-11-04T10:01:43.057Z,42.23
2018-11-04T10:04:12.544Z,43.30
2018-11-04T10:06:41.925Z,41.03
2018-11-04T10:09:12.896Z,44.33
2018-11-04T10:11:42.305Z,43.47
2018-11-04T10:14:12.270Z,46.07
2018-11-04T10:16:41.711Z,45.47
2018-11-04T10:19:11.289Z,44.43
2018-11-04T10:21:40.726Z,42.37
2018-11-04T10:24:10.145Z,44.40
2018-11-04T10:26:39.613Z,44.97
2018-11-04T10:29:09.188Z,43.30
2018-11-04T10:31:38.666Z,44.60
2018-11-04T10:34:08.467Z,44.87
2018-11-04T10:36:37.892Z,44.67
2018-11-04T10:39:09.775Z,44.47
2018-11-04T10:41:39.208Z,43.27
2018-11-04T10:44:08.951Z,42.73
2018-11-04T10:46:38.594Z,45.33
2018-11-04T10:49:08.330Z,43.23
2018-11-04T10:51:38.445Z,44.43
2018-11-04T10:54:07.889Z,44.00
2018-11-04T10:56:37.369Z,43.33
2018-11-04T10:59:07.084Z,42.90
2018-11-04T11:01:36.527Z,44.70
2018-11-04T11:04:05.970Z,43.83
2018-11-04T11:06:35.374Z,44.27
2018-11-04T11:09:10.256Z,46.30
2018-11-04T11:11:40.667Z,45.47
2018-11-04T11:14:10.100Z,43.07
2018-11-04T11:16:39.499Z,44.07
2018-11-04T11:19:08.934Z,51.53
2018-11-04T11:21:38.360Z,47.37
2018-11-04T11:24:07.924Z,48.47
2018-11-04T11:26:37.408Z,47.10
2018-11-04T11:29:06.803Z,42.60
2018-11-04T11:31:36.408Z,48.17
2018-11-04T11:34:05.963Z,47.60
2018-11-04T11:36:35.412Z,45.60
2018-11-04T11:39:08.520Z,46.27
2018-11-04T11:41:37.976Z,46.60
2018-11-04T11:44:07.391Z,49.00
2018-11-04T11:46:36.816Z,44.30
2018-11-04T11:49:06.268Z,46.83
2018-11-04T11:51:35.697Z,50.03
2018-11-04T11:54:05.311Z,46.03
2018-11-04T11:56:34.785Z,47.67
2018-11-04T11:59:04.186Z,47.00
2018-11-04T12:01:33.620Z,49.07
2018-11-04T12:04:03.104Z,48.00
2018-11-04T12:06:32.566Z,48.23
2018-11-04T12:09:02.350Z,45.80
2018-11-04T12:11:31.744Z,46.87
2018-11-04T12:14:01.184Z,45.63
2018-11-04T12:16:30.645Z,48.87
2018-11-04T12:19:00.053Z,50.33
2018-11-04T12:21:29.493Z,48.00
2018-11-04T12:23:58.927Z,47.93
2018-11-04T12:26:28.360Z,48.37
2018-11-04T12:28:58.327Z,47.07
2018-11-04T12:31:28.297Z,49.87
2018-11-04T12:33:57.683Z,49.60
2018-11-04T12:36:27.195Z,46.27
2018-11-04T12:38:56.676Z,47.37
2018-11-04T12:41:26.116Z,48.17
2018-11-04T12:43:55.658Z,50.10
2018-11-04T12:46:25.122Z,48.83
2018-11-04T12:48:54.604Z,46.43
2018-11-04T12:51:24.039Z,48.67
2018-11-04T12:53:53.574Z,51.60
2018-11-04T12:56:22.964Z,51.70
2018-11-04T12:58:52.553Z,50.40
2018-11-04T13:01:22.079Z,49.70
2018-11-04T13:03:51.508Z,47.77
2018-11-04T13:06:20.991Z,47.33
2018-11-04T13:08:50.605Z,48.87
2018-11-04T13:11:20.051Z,48.20
2018-11-04T13:13:50.168Z,45.90
2018-11-04T13:16:19.781Z,47.73
2018-11-04T13:18:49.321Z,48.00
2018-11-04T13:21:19.131Z,48.20
2018-11-04T13:23:48.590Z,48.00
2018-11-04T13:26:18.092Z,48.60
2018-11-04T13:28:47.579Z,47.97
2018-11-04T13:31:17.161Z,51.00
2018-11-04T13:33:46.726Z,45.60
2018-11-04T13:36:16.965Z,46.73
2018-11-04T13:38:46.968Z,46.60
2018-11-04T13:41:16.528Z,50.57
2018-11-04T13:43:45.944Z,49.73
2018-11-04T13:46:15.609Z,48.43
2018-11-04T13:48:45.033Z,48.47
2018-11-04T13:51:14.480Z,49.10
2018-11-04T13:53:44.044Z,48.50
2018-11-04T13:56:13.560Z,47.67
2018-11-04T13:58:43.125Z,48.90
2018-11-04T14:01:12.772Z,47.77
2018-11-04T14:03:42.342Z,48.23
2018-11-04T14:06:11.918Z,49.20
2018-11-04T14:08:41.591Z,50.10
2018-11-04T14:11:11.198Z,50.03
2018-11-04T14:13:40.733Z,44.60
2018-11-04T14:16:10.540Z,48.53
2018-11-04T14:18:39.997Z,49.10
2018-11-04T14:21:09.524Z,51.60
2018-11-04T14:23:39.051Z,48.87
2018-11-04T14:26:08.755Z,50.17
2018-11-04T14:28:38.246Z,48.07
2018-11-04T14:31:07.753Z,49.13
2018-11-04T14:33:37.164Z,48.77
2018-11-04T14:36:06.824Z,54.03
2018-11-04T14:38:36.306Z,51.40
2018-11-04T14:41:06.451Z,52.37
2018-11-04T14:43:35.993Z,51.00
2018-11-04T14:46:06.005Z,52.67
2018-11-04T14:48:35.618Z,50.60
2018-11-04T14:51:05.216Z,48.93
2018-11-04T14:53:34.892Z,49.80
2018-11-04T14:56:05.051Z,49.87
2018-11-04T14:58:34.770Z,48.50
2018-11-04T15:01:04.469Z,50.80
2018-11-04T15:03:34.024Z,49.20
2018-11-04T15:06:04.318Z,49.97
2018-11-04T15:08:36.004Z,48.77
2018-11-04T15:11:05.461Z,51.40
2018-11-04T15:13:34.887Z,50.17
2018-11-04T15:16:04.480Z,51.37
2018-11-04T15:18:34.085Z,53.83
2018-11-04T15:21:03.533Z,52.73
2018-11-04T15:23:32.972Z,55.37
2018-11-04T15:26:02.420Z,51.33
2018-11-04T15:28:31.804Z,51.17
2018-11-04T15:31:01.309Z,51.73
2018-11-04T15:33:30.732Z,50.43
2018-11-04T15:36:00.234Z,55.27
2018-11-04T15:38:29.705Z,52.10
2018-11-04T15:40:59.678Z,51.63
2018-11-04T15:43:29.387Z,49.27
2018-11-04T15:45:58.924Z,50.50
2018-11-04T15:48:28.356Z,52.23
2018-11-04T15:50:57.803Z,51.60
2018-11-04T15:53:27.255Z,52.17
2018-11-04T15:55:56.744Z,50.97
2018-11-04T15:58:26.140Z,52.17
2018-11-04T16:00:55.696Z,51.97
2018-11-04T16:03:25.153Z,52.70
2018-11-04T16:05:54.747Z,53.03
2018-11-04T16:08:24.119Z,54.20
2018-11-04T16:10:53.587Z,49.10
2018-11-04T16:13:22.976Z,49.30
2018-11-04T16:15:52.475Z,52.70
2018-11-04T16:18:22.066Z,53.80
2018-11-04T16:20:51.430Z,54.30
2018-11-04T16:23:20.881Z,54.87
2018-11-04T16:25:50.324Z,53.63
2018-11-04T16:28:19.810Z,51.97
2018-11-04T16:30:49.251Z,56.90
2018-11-04T16:33:18.830Z,53.67
2018-11-04T16:35:48.267Z,54.97
2018-11-04T16:38:17.787Z,54.00
2018-11-04T16:40:47.270Z,53.73
2018-11-04T16:43:16.812Z,56.00
2018-11-04T16:45:46.917Z,56.60
2018-11-04T16:48:17.096Z,54.70
2018-11-04T16:50:46.716Z,54.50
2018-11-04T16:53:16.343Z,53.00
2018-11-04T16:55:46.423Z,56.90
2018-11-04T16:58:16.858Z,56.00
2018-11-04T17:00:50.501Z,54.17
2018-11-04T17:03:20.008Z,54.43
2018-11-04T17:05:50.113Z,51.57
2018-11-04T17:08:19.457Z,57.77
2018-11-04T17:10:50.096Z,54.87
2018-11-04T17:13:19.615Z,55.90
2018-11-04T17:15:49.039Z,52.87
2018-11-04T17:18:18.662Z,52.80
2018-11-04T17:20:47.973Z,52.30
2018-11-04T17:23:17.461Z,51.07
2018-11-04T17:25:46.848Z,52.83
2018-11-04T17:28:16.384Z,51.37
2018-11-04T17:30:45.812Z,56.77
2018-11-04T17:33:15.248Z,55.47
2018-11-04T17:35:45.070Z,55.40
2018-11-04T17:38:14.414Z,51.50
2018-11-04T17:40:43.809Z,51.63
2018-11-04T17:43:13.289Z,51.13
2018-11-04T17:45:42.704Z,52.70
2018-11-04T17:48:12.127Z,50.60
2018-11-04T17:50:41.684Z,53.33
2018-11-04T17:53:11.104Z,50.27
2018-11-04T17:55:40.567Z,51.10
2018-11-04T17:58:10.134Z,49.50
2018-11-04T18:00:39.549Z,50.67
2018-11-04T18:03:09.033Z,52.80
2018-11-04T18:05:38.432Z,48.00
2018-11-04T18:08:07.888Z,52.00
2018-11-04T18:10:37.481Z,48.80
2018-11-04T18:13:07.152Z,49.30
2018-11-04T18:15:36.684Z,49.27
2018-11-04T18:18:06.372Z,50.13
2018-11-04T18:20:36.523Z,50.80
2018-11-04T18:23:06.072Z,48.93
2018-11-04T18:25:35.533Z,50.23
2018-11-04T18:28:05.145Z,48.50
2018-11-04T18:30:34.619Z,49.33
2018-11-04T18:33:04.156Z,46.57
2018-11-04T18:35:33.730Z,49.30
2018-11-04T18:38:03.373Z,46.07
2018-11-04T18:40:36.916Z,49.07
2018-11-04T18:43:07.092Z,46.63
2018-11-04T18:45:36.636Z,47.40
2018-11-04T18:48:06.264Z,49.73
2018-11-04T18:50:35.857Z,49.03
2018-11-04T18:53:05.256Z,42.17
2018-11-04T18:55:34.809Z,46.77
2018-11-04T18:58:04.239Z,44.27
2018-11-04T19:00:33.675Z,45.67
2018-11-04T19:03:03.365Z,48.27
2018-11-04T19:05:32.923Z,46.67
2018-11-04T19:08:02.584Z,42.93
2018-11-04T19:10:32.207Z,42.00
2018-11-04T19:13:01.678Z,42.40
2018-11-04T19:15:31.088Z,44.17
2018-11-04T19:18:00.843Z,43.77
2018-11-04T19:20:30.318Z,45.30
2018-11-04T19:22:59.888Z,40.07
2018-11-04T19:25:29.464Z,39.63
2018-11-04T19:27:59.033Z,40.87
2018-11-04T19:30:28.607Z,39.43
2018-11-04T19:32:58.317Z,36.90
2018-11-04T19:35:28.312Z,41.93
2018-11-04T19:37:58.137Z,39.30
2018-11-04T19:40:27.728Z,38.67
2018-11-04T19:42:57.285Z,40.03
2018-11-04T19:45:26.748Z,38.90
2018-11-04T19:47:56.237Z,37.03
2018-11-04T19:50:27.205Z,40.67
2018-11-04T19:52:56.895Z,40.67
2018-11-04T19:55:26.516Z,39.40
2018-11-04T19:57:56.111Z,43.00
2018-11-04T20:00:25.497Z,38.70
2018-11-04T20:02:54.959Z,40.73
2018-11-04T20:05:24.463Z,38.17
2018-11-04T20:07:53.825Z,41.00
2018-11-04T20:10:23.365Z,40.43
2018-11-04T20:13:57.732Z,38.30
2018-11-04T20:16:27.175Z,34.67
2018-11-04T20:19:01.794Z,41.00
2018-11-04T20:21:31.267Z,39.97
2018-11-04T20:24:04.810Z,42.37
2018-11-04T20:26:34.281Z,38.60
2018-11-04T20:29:03.872Z,39.63
2018-11-04T20:31:38.837Z,39.63
2018-11-04T20:34:08.342Z,34.67
2018-11-04T20:36:37.992Z,37.97
2018-11-04T20:39:14.551Z,33.30
2018-11-04T20:41:44.289Z,35.13
2018-11-04T20:44:13.749Z,36.80
2018-11-04T20:46:43.458Z,36.90
2018-11-04T20:49:18.289Z,36.60
2018-11-04T20:51:48.184Z,35.90
2018-11-04T20:54:17.404Z,35.37
2018-11-04T20:56:51.908Z,37.60
2018-11-04T20:59:21.465Z,38.23
2018-11-04T21:01:51.340Z,34.47
2018-11-04T21:04:21.183Z,35.57
2018-11-04T21:06:50.742Z,36.97
2018-11-04T21:09:20.225Z,36.60
2018-11-04T21:11:50.013Z,31.93
2018-11-04T21:14:19.496Z,33.70
2018-11-04T21:16:49.047Z,34.60
2018-11-04T21:19:18.448Z,36.20
2018-11-04T21:21:48.134Z,34.67
2018-11-04T21:24:17.676Z,35.60
2018-11-04T21:26:47.189Z,33.50
2018-11-04T21:29:16.862Z,33.77
2018-11-04T21:31:46.240Z,35.53
2018-11-04T21:34:15.772Z,33.80
2018-11-04T21:36:45.517Z,33.47
2018-11-04T21:39:15.525Z,33.87
2018-11-04T21:41:45.733Z,35.50
2018-11-04T21:44:15.347Z,34.70
2018-11-04T21:46:44.774Z,33.07
2018-11-04T21:49:14.709Z,34.20
2018-11-04T21:51:44.258Z,35.90
2018-11-04T21:54:13.784Z,36.13
2018-11-04T21:56:43.426Z,35.80
2018-11-04T21:59:12.949Z,36.60
2018-11-04T22:01:42.679Z,39.27
2018-11-04T22:04:12.685Z,39.10
2018-11-04T22:06:42.787Z,38.97
2018-11-04T22:09:12.220Z,40.03
2018-11-04T22:11:41.786Z,38.17
2018-11-04T22:14:11.236Z,38.23
2018-11-04T22:16:40.713Z,39.87
2018-11-04T22:19:10.348Z,38.77
2018-11-04T22:21:39.870Z,39.10
2018-11-04T22:24:09.285Z,38.83
2018-11-04T22:26:38.761Z,38.67
2018-11-04T22:29:08.169Z,39.80
2018-11-04T22:31:37.704Z,39.30
2018-11-04T22:34:08.393Z,38.37
2018-11-04T22:36:37.886Z,39.23
2018-11-04T22:39:08.946Z,40.13
2018-11-04T22:41:38.376Z,39.83
2018-11-04T22:44:07.913Z,38.10
2018-11-04T22:46:37.495Z,42.17
2018-11-04T22:49:07.133Z,42.73
2018-11-04T22:51:36.629Z,41.00
2018-11-04T22:54:06.546Z,41.30
2018-11-04T22:56:36.217Z,42.60
2018-11-04T22:59:06.267Z,45.27
2018-11-04T23:01:35.774Z,45.17
2018-11-04T23:04:05.233Z,43.87
2018-11-04T23:06:34.586Z,37.50
2018-11-04T23:09:04.705Z,42.70
2018-11-04T23:11:34.176Z,40.93
2018-11-04T23:14:03.631Z,43.80
2018-11-04T23:16:33.112Z,42.93
2018-11-04T23:19:02.847Z,39.23
2018-11-04T23:21:32.359Z,38.70
2018-11-04T23:24:01.804Z,42.37
2018-11-04T23:26:31.306Z,41.30
2018-11-04T23:29:00.768Z,41.67
2018-11-04T23:31:30.176Z,41.80
2018-11-04T23:33:59.728Z,42.27
2018-11-04T23:36:29.169Z,40.30
2018-11-04T23:38:58.564Z,42.83
2018-11-04T23:41:28.116Z,40.93
2018-11-04T23:43:57.507Z,43.30
2018-11-04T23:46:27.293Z,42.30
2018-11-04T23:48:57.460Z,41.67
2018-11-04T23:51:27.175Z,41.17
2018-11-04T23:53:56.929Z,42.27
2018-11-04T23:56:26.337Z,40.80
2018-11-04T23:58:56.566Z,45.57
